Briefing drone pour Montchanin

Rechercher une autre localisation

Conditions de vol :


Nous sommes le : Samedi 28 mai 2022
Il est 19:36 UTC (21:36 LT)

Lever de soleil : 03:28 UTC (05:28 LT)
Coucher de soleil : 19:50 UTC (21:50 LT)

Météo

L'essentiel des conditions de vol

VIGILANCE MÉTÉO FRANCE - Saône-et-Loire (71)
Pas de vigilances particulieres
METAR de LFLH
LFLH 281800Z AUTO 05008KT 360V080 CAVOK 19/03 Q1016

Date d'émission: 28/05/2022
Heure d'émission: 18:00 UTC
Vent: 050° (variable du 360° au 080°) pour 8 KT (15 km/h)
Visibilité horizontale: > 10 km
Plafond : Plafond et visibilité OK (CAVOK)
Température: 19 °C
Point de rosée: 3 °C
Humidité: 35%
Pression (QNH): 1016 hPa
Prévision 24h pour Chalon-sur-saone (19 km)
Vent : 40° pour 5 KT (20 km/h)
Temperature Maxi: 18 °C
Temperature Min: 18 °C
Humidité : 36%
Condition : Partiellement nuageux



Warning: count(): Parameter must be an array or an object that implements Countable in /homepages/6/d509196549/htdocs/droneoxygene/briefing.php on line 743
WEBCAM POUR MONTCHANIN

Réglementation

Voler en sécurité

CARTES AERONAUTIQUE 1/500.000
CARTES VAC (LFLH)
SUP AIP




Chargement des AIP...
NOTAM (MONTCHANIN + Terrain à proximité / FIR )




Chargement des NOTAMS...
CONTACT PREFECTURE 71


Avertissement : Les données mises à disposition sont indicatives. Oxygène Drone ne pourra être tenu responsable de dégâts causés aux biens et aux personnes.